BXTK1: Spring River at Baxter Springs

Data processed at Fri Jun 05 2020 23:55


All information presented herein is the property of the government of the United States of America and may be revised or deleted at any time without prior notice.
Dissemination of this information without the expressed written consent of the Public Affairs Office, Tulsa District U.S. Army Corps of Engineers is strictly prohibited.
These data are gathered electronically and, as presented, have not undergone any form of quality control. These data are not guaranteed to be valid or correct.
Go to home page.
Go to station list.
Go to home page.

Upstream stations:

Downstream station:
Previous Day
Next Day
Current Day
    
SHEF ID:       BXTK1     SPRING R NR BAXTER SPRINGS, KS
STATION TYPE:  

               PRECIP     STAGE  RIV-FLOW  BAT-LOAD
                   in        ft       cfs      volt
              Ccp-Rev   Ccp-Rev   Ccp-Rev   Ccp-Rev
(US/Central)
06/05 00:00      0.00      5.06      4308     12.54
06/05 01:00      0.00      5.24      4865     12.48
06/05 02:00      0.00      5.48      5658     12.48
06/05 03:00      0.00      5.64      6219     12.48
06/05 04:00      0.00      5.77      6693     12.48
06/05 05:00      0.00      5.89      7147     12.42
06/05 06:00      0.00      5.97      7457     12.36
06/05 07:00      0.00      6.01      7614     12.42
06/05 08:00      0.00      6.04      7734     12.60
06/05 09:00      0.00      6.05      7774     12.95
06/05 10:00      0.00      6.04      7734     13.18
06/05 11:00      0.00      6.01      7614     13.83
06/05 12:00      0.00      5.97      7457     13.83
06/05 13:00      0.00      5.95      7379     13.77
06/05 14:00      0.00      5.90      7185     13.65
06/05 15:00      0.00      5.86      7032     13.59
06/05 16:00      0.00      5.82      6881     13.53
06/05 17:00      0.00      5.76      6656     13.48
06/05 18:00      0.00      5.71      6472     13.24
06/05 19:00      0.00      5.67      6327     12.60
06/05 20:00      0.00      5.63      6183     12.60
06/05 21:00      0.00      5.59      6041     12.60
06/05 22:00      0.00      5.54      5865     12.54
06/05 23:00      ----      ----      ----      ----